Flugplatz Ansbach Army Heliport

Bericht für ETEB

vom 31.05. um 08:56 UTC

Wind 8 kt aus 30°

Sichtweite 10 km oder mehr

keine Wolken

Temperatur 14.5°C

Taupunkt 2.4°C

Luftfeuchtigkeit 44%

Luftdruck 1021 hPa

ETEB 310856Z AUTO 03008KT 9999 CLR 15/02 A3015 RMK AO2 SLP221 T01450024 52006 $
Keine Prognose (TAF) verfügbar.
Impressum